»·PEaware :: JBU679 KLAS-KLGB

JBU679 :: KLAS-KLGB

FLIGHT INFORMATION

Flight Status: Arrived
Operator:
JetBlue Airways
More flights by this operator :: More flights under this callsign
Pilot: Justin S. (10202)
Aircraft: AIRBUS A320
(A320)
More flights by this aircraft type
Origin: KLAS McCarran Intl
United States
Destination: KLGB Long Beach
United States
More flights between these airports :: More routes between these airports
Route: +BOACH8 WHIGG FEYLA DSNEE4
File this flight plan on PilotEdge
Remarks:
Altitude:
(Current/Filed)
26,000ft
Speed:
(Current/Filed)
450kts
Departed: 22-Jul-18 07:31 PM
Arrived: 22-Jul-18 08:21 PM
Distance/Time
Traveled:
200nm/0:50
Distance/Time
To Go:
Arrived

Flight Plot

Page will automatically refresh every two minutes.

Flight plan parsing failed; only flown route is shown


Map Options




Map Legend


Flown Route
Filed Route
Departure Airport
Arrival Airport
Navaid (VOR, NDB)
Fix

Horizontal Profiles

Position Reports

Time Latitude Longitude Heading Altitude Ground
Speed
22-Jul-18 18:50 36.085331 -115.138471 359 2195ft 0kts
22-Jul-18 18:51 36.085331 -115.138471 359 2195ft 0kts
22-Jul-18 18:52 36.085331 -115.138471 359 2195ft 0kts
22-Jul-18 18:53 36.085331 -115.138471 359 2195ft 0kts
22-Jul-18 18:54 36.085331 -115.138471 359 2195ft 0kts
22-Jul-18 18:55 36.085331 -115.138471 359 2195ft 0kts
22-Jul-18 18:56 36.085331 -115.138471 359 2195ft 0kts
22-Jul-18 18:57 36.085331 -115.138471 359 2195ft 0kts
22-Jul-18 18:58 36.085331 -115.138471 359 2195ft 0kts
22-Jul-18 18:59 36.085331 -115.138471 359 2195ft 0kts
22-Jul-18 19:00 36.085331 -115.138471 359 2195ft 0kts
22-Jul-18 19:01 36.085331 -115.138471 359 2195ft 0kts
22-Jul-18 19:02 36.085331 -115.138471 359 2195ft 0kts
22-Jul-18 19:03 36.085331 -115.138471 359 2195ft 0kts
22-Jul-18 19:04 36.085331 -115.138471 359 2195ft 0kts
22-Jul-18 19:05 36.085331 -115.138471 359 2195ft 0kts
22-Jul-18 19:06 36.085331 -115.138471 359 2195ft 0kts
22-Jul-18 19:07 36.085331 -115.138471 359 2195ft 0kts
22-Jul-18 19:08 36.085331 -115.138471 359 2195ft 0kts
22-Jul-18 19:09 36.085331 -115.138471 359 2195ft 0kts
22-Jul-18 19:10 36.085331 -115.138471 359 2195ft 0kts
22-Jul-18 19:11 36.085331 -115.138471 359 2195ft 0kts
22-Jul-18 19:12 36.085126 -115.138468 357 2195ft 2kts
22-Jul-18 19:13 36.084510 -115.138295 312 2195ft 2kts
22-Jul-18 19:14 36.084442 -115.137982 269 2195ft 0kts
22-Jul-18 19:15 36.084442 -115.137983 269 2195ft 0kts
22-Jul-18 19:16 36.084442 -115.137984 269 2195ft 0kts
22-Jul-18 19:17 36.084442 -115.137985 269 2195ft 0kts
22-Jul-18 19:18 36.084441 -115.138374 269 2195ft 4kts
22-Jul-18 19:19 36.084233 -115.140765 238 2195ft 6kts
22-Jul-18 19:20 36.083536 -115.141915 228 2195ft 0kts
22-Jul-18 19:21 36.083536 -115.141916 228 2195ft 0kts
22-Jul-18 19:22 36.083535 -115.141917 228 2195ft 0kts
22-Jul-18 19:23 36.083516 -115.141944 228 2195ft 0kts
22-Jul-18 19:24 36.083515 -115.141945 228 2195ft 0kts
22-Jul-18 19:25 36.083503 -115.141962 228 2195ft 1kts
22-Jul-18 19:26 36.080962 -115.142423 179 2195ft 16kts
22-Jul-18 19:27 36.078266 -115.141402 89 2195ft 13kts
22-Jul-18 19:28 36.078267 -115.135267 89 2195ft 20kts
22-Jul-18 19:29 36.078282 -115.126880 89 2195ft 26kts
22-Jul-18 19:30 36.077675 -115.121780 130 2195ft 3kts
22-Jul-18 19:31 36.077220 -115.121304 161 2195ft 5kts
22-Jul-18 19:32 36.076408 -115.123785 270 2195ft 48kts
22-Jul-18 19:33 36.076214 -115.173370 269 3318ft 174kts
22-Jul-18 19:34 36.076192 -115.227371 267 4203ft 210kts
22-Jul-18 19:35 36.028367 -115.274655 197 5108ft 268kts
22-Jul-18 19:36 35.954028 -115.304507 185 7401ft 286kts
22-Jul-18 19:37 35.859440 -115.314403 181 10158ft 299kts
22-Jul-18 19:38 35.785747 -115.307022 174 11138ft 342kts
22-Jul-18 19:39 35.683714 -115.304423 199 11961ft 391kts
22-Jul-18 19:40 35.604424 -115.393764 229 14025ft 395kts
22-Jul-18 19:41 35.516363 -115.512108 227 15989ft 409kts
22-Jul-18 19:42 35.452131 -115.598859 227 17418ft 415kts
22-Jul-18 19:43 35.373614 -115.704435 227 19020ft 423kts
22-Jul-18 19:44 35.293794 -115.811535 227 20529ft 429kts
22-Jul-18 19:45 35.212160 -115.919864 225 21868ft 435kts
22-Jul-18 19:46 35.127304 -116.026820 225 23063ft 441kts
22-Jul-18 19:47 35.041399 -116.134869 224 24190ft 446kts
22-Jul-18 19:48 34.954413 -116.243968 224 25097ft 450kts
22-Jul-18 19:49 34.867884 -116.352167 224 26049ft 444kts
22-Jul-18 19:50 34.782728 -116.461201 224 26082ft 444kts
22-Jul-18 19:51 34.700285 -116.565710 224 25255ft 404kts
22-Jul-18 19:52 34.615171 -116.651080 217 23209ft 394kts
22-Jul-18 19:53 34.530630 -116.733788 218 21144ft 387kts
22-Jul-18 19:54 34.451688 -116.820250 223 19169ft 380kts
22-Jul-18 19:55 34.376487 -116.907664 223 17233ft 366kts
22-Jul-18 19:56 34.303234 -116.992396 223 15299ft 361kts
22-Jul-18 19:57 34.225553 -117.064061 210 13741ft 341kts
22-Jul-18 19:58 34.144311 -117.117282 204 12744ft 337kts
22-Jul-18 19:59 34.057132 -117.163578 204 12039ft 341kts
22-Jul-18 20:00 33.978932 -117.218904 228 11953ft 305kts
22-Jul-18 20:01 33.928265 -117.291828 229 11111ft 270kts
22-Jul-18 20:02 33.879764 -117.360328 229 9408ft 265kts
22-Jul-18 20:03 33.833134 -117.426130 229 8357ft 252kts
22-Jul-18 20:04 33.802590 -117.498942 251 7655ft 248kts
22-Jul-18 20:05 33.813066 -117.581261 301 6641ft 261kts
22-Jul-18 20:06 33.850002 -117.650356 301 5999ft 223kts
22-Jul-18 20:07 33.882733 -117.711408 301 5091ft 211kts
22-Jul-18 20:08 33.912427 -117.767316 301 4849ft 192kts
22-Jul-18 20:09 33.941922 -117.821527 318 3991ft 192kts
22-Jul-18 20:10 33.976524 -117.795385 106 4024ft 202kts
22-Jul-18 20:11 33.928791 -117.780179 191 4043ft 198kts
22-Jul-18 20:12 33.874322 -117.792313 191 4157ft 199kts
22-Jul-18 20:13 33.820008 -117.804353 190 4039ft 198kts
22-Jul-18 20:14 33.765533 -117.814949 191 4025ft 198kts
22-Jul-18 20:15 33.712465 -117.831104 210 4031ft 196kts
22-Jul-18 20:16 33.674408 -117.872727 273 4016ft 191kts
22-Jul-18 20:17 33.684256 -117.935832 281 4033ft 192kts
22-Jul-18 20:18 33.694910 -117.997968 287 3060ft 189kts
22-Jul-18 20:19 33.729420 -118.044567 314 2039ft 188kts
22-Jul-18 20:20 33.766626 -118.089500 314 1333ft 190kts
22-Jul-18 20:21 33.799614 -118.129366 312 420ft 151kts
22-Jul-18 20:22 33.821690 -118.156066 350 74ft 11kts
22-Jul-18 20:23 33.821716 -118.152549 90 74ft 14kts
22-Jul-18 20:24 33.821695 -118.147585 90 74ft 12kts
22-Jul-18 20:25 33.819468 -118.146360 91 74ft 4kts
22-Jul-18 20:26 33.819468 -118.146316 91 74ft 0kts
22-Jul-18 20:27 33.819468 -118.146316 91 74ft 0kts
22-Jul-18 20:28 33.819468 -118.146316 91 74ft 0kts
22-Jul-18 20:29 33.819468 -118.146316 91 74ft 0kts
22-Jul-18 20:30 33.819468 -118.146316 91 74ft 0kts
22-Jul-18 20:31 33.819468 -118.146316 91 74ft 0kts
22-Jul-18 20:32 33.819468 -118.146316 91 74ft 0kts

Navigation Log

Ident Type
Flight plan parsing failed, navigation log unavailable